KSSI

McKinnon St Simons Island Airport

Brunswick, Georgia, USA
KSSI 182320Z 1900/1924 VRB06KT P6SM SCT040 OVC080 FM190300 VRB03KT P6SM OVC040 FM191500 17010KT P6SM SCT030 BKN250 FM192000 18010G20KT P6SM SCT030 OVC250
Issued Valid From Valid To
Jan-18 @ 23:20 UTC
(3 hours ago)
Jan-19 @ 00:00 UTC
(2 hours ago)
Jan-20 @ 00:00 UTC
(in 22 hours)
Jan-19 @ 00:00 to Jan-19 @ 03:00
KSSI 182320Z 1900/1924 VRB06KT P6SM SCT040 OVC080
Wind Visibility Clouds
Variable at 6 knots Greater than 6 miles
  • Scattered at 4,000' AGL
  • Overcast at 8,000' AGL
From Jan-19 @ 03:00 to Jan-19 @ 15:00
FM190300 VRB03KT P6SM OVC040
Wind Visibility Clouds
Variable at 3 knots Greater than 6 miles
  • Overcast at 4,000' AGL
From Jan-19 @ 15:00 to Jan-19 @ 20:00
FM191500 17010KT P6SM SCT030 BKN250
Wind Visibility Clouds
170° at 10 knots Greater than 6 miles
  • Scattered at 3,000' AGL
  • Broken at 25,000' AGL
From Jan-19 @ 20:00 to Jan-20 @ 00:00
FM192000 18010G20KT P6SM SCT030 OVC250
Wind Visibility Clouds
180° at 10 knots
 Gusting to 20 knots
Greater than 6 miles
  • Scattered at 3,000' AGL
  • Overcast at 25,000' AGL
KSSI 182320Z 1900/1924 VRB06KT P6SM SCT040 OVC080 FM190300 VRB03KT P6SM OVC040 FM191500 17010KT P6SM SCT030 BKN250 FM192000 18010G20KT P6SM SCT030 OVC250
Issued Jan-18 @ 23:20 UTC
(3 hours ago)
Valid From Jan-19 @ 00:00 UTC
(2 hours ago)
Valid To Jan-20 @ 00:00 UTC
(in 22 hours)
Jan-19 @ 00:00 - Jan-19 @ 03:00
Wind Visibility
Variable at 6 knots Greater than 6 miles
Clouds
  • Scattered at 4,000' AGL
  • Overcast at 8,000' AGL
From Jan-19 @ 03:00 - Jan-19 @ 15:00
Wind Visibility
Variable at 3 knots Greater than 6 miles
Clouds
  • Overcast at 4,000' AGL
From Jan-19 @ 15:00 - Jan-19 @ 20:00
Wind Visibility
170° at 10 knots Greater than 6 miles
Clouds
  • Scattered at 3,000' AGL
  • Broken at 25,000' AGL
From Jan-19 @ 20:00 - Jan-20 @ 00:00
Wind Visibility
180° at 10 knots
 Gusting to 20 knots
Greater than 6 miles
Clouds
  • Scattered at 3,000' AGL
  • Overcast at 25,000' AGL